createdAt,value
2017-07-22T00:01:28.651Z,67.50
2017-07-22T00:03:57.919Z,67.90
2017-07-22T00:06:27.163Z,67.60
2017-07-22T00:08:56.385Z,67.70
2017-07-22T00:11:25.648Z,67.00
2017-07-22T00:14:01.246Z,67.80
2017-07-22T00:16:30.463Z,67.20
2017-07-22T00:18:59.687Z,67.40
2017-07-22T00:21:28.935Z,67.80
2017-07-22T00:23:58.177Z,67.50
2017-07-22T00:26:27.441Z,67.40
2017-07-22T00:28:56.696Z,67.20
2017-07-22T00:31:26.518Z,67.20
2017-07-22T00:33:55.743Z,67.10
2017-07-22T00:36:25.031Z,67.30
2017-07-22T00:38:55.025Z,67.30
2017-07-22T00:41:24.235Z,67.30
2017-07-22T00:43:53.442Z,67.40
2017-07-22T00:46:23.450Z,68.00
2017-07-22T00:48:53.191Z,67.90
2017-07-22T00:51:22.437Z,67.50
2017-07-22T00:53:51.704Z,67.60
2017-07-22T00:56:21.001Z,67.60
2017-07-22T00:58:50.289Z,67.90
2017-07-22T01:01:19.520Z,67.50
2017-07-22T01:03:48.727Z,68.20
2017-07-22T01:06:18.540Z,67.90
2017-07-22T01:08:47.762Z,68.70
2017-07-22T01:11:17.757Z,68.80
2017-07-22T01:13:46.986Z,68.80
2017-07-22T01:16:16.208Z,69.20
2017-07-22T01:18:46.130Z,68.30
2017-07-22T01:21:15.387Z,68.30
2017-07-22T01:23:44.639Z,68.60
2017-07-22T01:26:13.915Z,68.20
2017-07-22T01:28:43.174Z,68.10
2017-07-22T01:31:12.404Z,68.40
2017-07-22T01:33:41.693Z,68.10
2017-07-22T01:36:11.747Z,68.90
2017-07-22T01:38:41.099Z,68.80
2017-07-22T01:41:10.366Z,68.80
2017-07-22T01:43:39.618Z,69.60
2017-07-22T01:46:08.869Z,69.30
2017-07-22T01:48:38.098Z,70.10
2017-07-22T01:51:08.826Z,71.30
2017-07-22T01:53:38.698Z,70.70
2017-07-22T01:56:08.478Z,70.80
2017-07-22T01:58:37.730Z,70.20
2017-07-22T02:01:07.153Z,69.90
2017-07-22T02:03:36.393Z,70.10
2017-07-22T02:06:05.658Z,69.20
2017-07-22T02:08:35.654Z,69.70
2017-07-22T02:11:04.897Z,69.70
2017-07-22T02:13:34.941Z,69.20
2017-07-22T02:16:04.178Z,69.40
2017-07-22T02:18:33.461Z,69.10
2017-07-22T02:21:02.710Z,68.80
2017-07-22T02:23:32.029Z,68.80
2017-07-22T02:26:01.298Z,69.20
2017-07-22T02:28:31.294Z,68.70
2017-07-22T02:31:01.198Z,68.60
2017-07-22T02:33:30.445Z,68.80
2017-07-22T02:35:59.658Z,68.50
2017-07-22T02:38:28.896Z,69.20
2017-07-22T02:40:58.139Z,68.90
2017-07-22T02:43:27.392Z,69.80
2017-07-22T02:45:57.358Z,69.40
2017-07-22T02:48:26.615Z,70.00
2017-07-22T02:50:55.913Z,69.40
2017-07-22T02:53:25.154Z,70.40
2017-07-22T02:55:54.401Z,69.90
2017-07-22T02:58:23.690Z,70.00
2017-07-22T03:00:52.949Z,70.30
2017-07-22T03:03:23.810Z,70.40
2017-07-22T03:05:53.138Z,69.80
2017-07-22T03:08:22.391Z,69.50
2017-07-22T03:10:51.644Z,69.20
2017-07-22T03:13:20.917Z,69.80
2017-07-22T03:15:50.123Z,69.70
2017-07-22T03:18:19.393Z,69.70
2017-07-22T03:20:49.246Z,69.70
2017-07-22T03:23:18.534Z,69.70
2017-07-22T03:25:47.792Z,69.50
2017-07-22T03:28:17.017Z,70.20
2017-07-22T03:30:46.343Z,69.60
2017-07-22T03:33:15.577Z,69.20
2017-07-22T03:35:45.458Z,69.70
2017-07-22T03:38:15.567Z,69.70
2017-07-22T03:40:44.805Z,69.50
2017-07-22T03:43:14.181Z,69.40
2017-07-22T03:45:43.402Z,69.50
2017-07-22T03:48:12.651Z,69.00
2017-07-22T03:50:41.921Z,69.40
2017-07-22T03:53:11.217Z,70.20
2017-07-22T03:55:40.471Z,69.50
2017-07-22T03:58:09.686Z,69.70
2017-07-22T04:00:38.913Z,70.00
2017-07-22T04:03:08.183Z,70.40
2017-07-22T04:05:38.219Z,69.80
2017-07-22T04:08:07.454Z,69.80
2017-07-22T04:10:37.491Z,69.80
2017-07-22T04:13:06.722Z,70.20
2017-07-22T04:15:36.851Z,70.80
2017-07-22T04:18:06.089Z,70.70
2017-07-22T04:20:35.374Z,70.90
2017-07-22T04:23:04.561Z,70.80
2017-07-22T04:25:33.842Z,70.60
2017-07-22T04:28:03.835Z,71.40
2017-07-22T04:30:33.067Z,71.40
2017-07-22T04:33:02.326Z,70.30
2017-07-22T04:35:31.567Z,70.00
2017-07-22T04:38:00.806Z,70.40
2017-07-22T04:40:30.033Z,70.30
2017-07-22T04:42:59.355Z,70.40
2017-07-22T04:45:29.398Z,70.20
2017-07-22T04:47:58.622Z,70.20
2017-07-22T04:50:27.867Z,70.30
2017-07-22T04:52:57.855Z,70.20
2017-07-22T04:55:27.097Z,70.10
2017-07-22T04:57:56.322Z,70.40
2017-07-22T05:00:25.589Z,70.40
2017-07-22T05:02:54.813Z,70.40
2017-07-22T05:05:24.065Z,70.10
2017-07-22T05:07:54.081Z,70.70
2017-07-22T05:10:24.148Z,70.70
2017-07-22T05:12:53.394Z,70.80
2017-07-22T05:15:22.597Z,70.80
2017-07-22T05:17:51.883Z,70.90
2017-07-22T05:20:21.126Z,70.50
2017-07-22T05:22:50.346Z,70.90
2017-07-22T05:25:19.566Z,70.60
2017-07-22T05:27:48.786Z,70.70
2017-07-22T05:30:18.062Z,70.40
2017-07-22T05:32:47.353Z,70.50
2017-07-22T05:35:16.574Z,70.20
2017-07-22T05:37:45.786Z,70.60
2017-07-22T05:40:14.997Z,70.60
2017-07-22T05:42:44.986Z,70.90
2017-07-22T05:45:14.273Z,70.90
2017-07-22T05:47:43.463Z,70.70
2017-07-22T05:50:12.710Z,70.30
2017-07-22T05:52:42.706Z,70.60
2017-07-22T05:55:11.939Z,70.70
2017-07-22T05:57:41.212Z,69.70
2017-07-22T06:00:10.452Z,70.00
2017-07-22T06:02:39.678Z,70.10
2017-07-22T06:05:09.406Z,70.10
2017-07-22T06:07:38.664Z,70.60
2017-07-22T06:10:07.966Z,70.20
2017-07-22T06:12:37.262Z,69.30
2017-07-22T06:15:06.474Z,69.30
2017-07-22T06:17:35.745Z,69.50
2017-07-22T06:20:04.968Z,69.10
2017-07-22T06:22:34.250Z,68.10
2017-07-22T06:25:03.492Z,68.60
2017-07-22T06:27:32.748Z,68.40
2017-07-22T06:30:01.988Z,67.90
2017-07-22T06:32:31.228Z,66.90
2017-07-22T06:35:01.519Z,67.40
2017-07-22T06:37:30.764Z,67.10
2017-07-22T06:40:00.073Z,67.40
2017-07-22T06:43:27.544Z,69.40
2017-07-22T06:45:56.764Z,64.50
2017-07-22T06:48:27.012Z,65.40
2017-07-22T06:50:56.306Z,67.70
2017-07-22T06:53:25.579Z,67.50
2017-07-22T06:55:54.851Z,67.50
2017-07-22T06:58:24.144Z,67.50
2017-07-22T07:00:53.731Z,69.30
2017-07-22T07:03:22.995Z,68.60
2017-07-22T07:05:52.262Z,67.50
2017-07-22T07:08:22.310Z,67.30
2017-07-22T07:10:52.113Z,67.80
2017-07-22T07:13:21.547Z,67.90
2017-07-22T07:15:51.267Z,67.10
2017-07-22T07:18:20.547Z,68.10
2017-07-22T07:20:49.783Z,68.30
2017-07-22T07:23:19.020Z,67.70
2017-07-22T07:25:48.267Z,68.30
2017-07-22T07:28:17.506Z,68.30
2017-07-22T07:30:46.766Z,67.80
2017-07-22T07:33:16.852Z,66.80
2017-07-22T07:35:46.894Z,65.80
2017-07-22T07:38:16.155Z,66.00
2017-07-22T07:40:45.932Z,66.70
2017-07-22T07:43:15.196Z,65.30
2017-07-22T07:45:44.468Z,65.80
2017-07-22T07:48:13.711Z,65.60
2017-07-22T07:50:43.024Z,65.60
2017-07-22T07:53:12.713Z,65.00
2017-07-22T07:55:41.964Z,65.20
2017-07-22T07:58:11.210Z,65.20
2017-07-22T08:00:40.470Z,64.60
2017-07-22T08:03:09.939Z,65.30
2017-07-22T08:05:39.353Z,65.20
2017-07-22T08:08:08.677Z,63.60
2017-07-22T08:10:37.915Z,64.30
2017-07-22T08:13:07.983Z,64.50
2017-07-22T08:15:37.237Z,64.40
2017-07-22T08:18:07.238Z,62.80
2017-07-22T08:20:37.442Z,63.30
2017-07-22T08:23:06.766Z,63.60
2017-07-22T08:25:36.815Z,62.70
2017-07-22T08:28:06.065Z,62.70
2017-07-22T08:30:35.351Z,61.90
2017-07-22T08:33:05.506Z,62.50
2017-07-22T08:35:34.749Z,63.40
2017-07-22T08:38:04.119Z,62.90
2017-07-22T08:40:33.354Z,64.40
2017-07-22T08:43:02.671Z,64.20
2017-07-22T08:45:32.729Z,62.80
2017-07-22T08:48:02.820Z,62.90
2017-07-22T08:50:32.060Z,62.80
2017-07-22T08:53:01.329Z,63.40
2017-07-22T08:55:30.695Z,63.30
2017-07-22T08:57:59.996Z,63.40
2017-07-22T09:00:29.268Z,62.70
2017-07-22T09:02:58.536Z,62.00
2017-07-22T09:05:27.807Z,61.00
2017-07-22T09:07:57.547Z,60.50
2017-07-22T09:10:27.642Z,60.80
2017-07-22T09:12:57.983Z,60.70
2017-07-22T09:15:27.935Z,61.50
2017-07-22T09:17:57.202Z,61.00
2017-07-22T09:20:27.215Z,60.70
2017-07-22T09:22:56.489Z,60.20
2017-07-22T09:25:25.719Z,59.20
2017-07-22T09:27:55.763Z,59.20
2017-07-22T09:30:25.096Z,59.20
2017-07-22T09:32:54.368Z,59.10
2017-07-22T09:35:23.766Z,59.80
2017-07-22T09:37:53.082Z,58.20
2017-07-22T09:40:22.541Z,59.30
2017-07-22T09:42:52.539Z,58.30
2017-07-22T09:45:22.182Z,58.30
2017-07-22T09:47:51.498Z,58.50
2017-07-22T09:50:20.782Z,59.20
2017-07-22T09:52:50.787Z,59.40
2017-07-22T09:55:20.800Z,58.50
2017-07-22T09:57:50.096Z,58.50
2017-07-22T10:00:19.349Z,57.40
2017-07-22T10:02:48.630Z,57.60
2017-07-22T10:05:19.164Z,58.10
2017-07-22T10:07:50.051Z,58.20
2017-07-22T10:10:19.234Z,57.60
2017-07-22T10:12:48.534Z,56.30
2017-07-22T10:15:17.827Z,55.10
2017-07-22T10:17:47.090Z,55.80
2017-07-22T10:20:16.314Z,54.50
2017-07-22T10:22:45.558Z,51.40
2017-07-22T10:25:15.091Z,54.00
2017-07-22T10:27:44.354Z,53.40
2017-07-22T10:30:13.599Z,52.50
2017-07-22T10:32:42.933Z,49.20
2017-07-22T10:35:13.430Z,51.90
2017-07-22T10:37:42.718Z,51.70
2017-07-22T10:40:12.002Z,48.20
2017-07-22T10:42:43.006Z,48.20
2017-07-22T10:45:13.195Z,47.90
2017-07-22T10:47:42.514Z,49.40
2017-07-22T10:50:12.210Z,48.20
2017-07-22T10:52:41.502Z,50.20
2017-07-22T10:55:10.792Z,47.90
2017-07-22T10:57:40.087Z,47.90
2017-07-22T11:00:09.349Z,47.50
2017-07-22T11:02:39.165Z,47.60
2017-07-22T11:05:08.473Z,50.40
2017-07-22T11:07:38.606Z,45.90
2017-07-22T11:10:07.879Z,45.80
2017-07-22T11:12:37.160Z,44.20
2017-07-22T11:15:06.898Z,48.10
2017-07-22T11:17:36.315Z,46.20
2017-07-22T11:20:05.700Z,46.20
2017-07-22T11:22:36.563Z,45.60
2017-07-22T11:25:05.932Z,47.90
2017-07-22T11:27:36.106Z,46.90
2017-07-22T11:30:05.463Z,47.80
2017-07-22T11:32:35.561Z,48.40
2017-07-22T11:35:04.915Z,48.40
2017-07-22T11:37:34.363Z,47.50
2017-07-22T11:40:03.673Z,48.00
2017-07-22T11:42:33.116Z,44.40
2017-07-22T11:45:02.731Z,47.80
2017-07-22T11:47:33.182Z,46.30
2017-07-22T11:50:02.554Z,47.10
2017-07-22T11:52:31.872Z,45.10
2017-07-22T11:55:01.195Z,48.50
2017-07-22T11:57:30.488Z,44.20
2017-07-22T12:00:00.633Z,44.10
2017-07-22T12:02:30.049Z,45.40
2017-07-22T12:04:59.399Z,46.00
2017-07-22T12:07:30.282Z,46.10
2017-07-22T12:09:59.663Z,43.20
2017-07-22T12:12:28.997Z,44.50
2017-07-22T12:14:59.133Z,44.40
2017-07-22T12:17:28.367Z,44.50
2017-07-22T12:19:57.650Z,44.00
2017-07-22T12:22:26.919Z,42.20
2017-07-22T12:24:56.232Z,41.90
2017-07-22T12:27:25.609Z,43.00
2017-07-22T12:29:54.839Z,42.00
2017-07-22T12:32:24.933Z,42.50
2017-07-22T12:34:54.227Z,44.10
2017-07-22T12:37:24.238Z,42.30
2017-07-22T12:39:53.518Z,41.90
2017-07-22T12:42:22.798Z,40.50
2017-07-22T12:44:52.052Z,41.50
2017-07-22T12:47:21.458Z,41.50
2017-07-22T12:49:50.991Z,38.20
2017-07-22T12:52:20.985Z,38.30
2017-07-22T12:54:50.799Z,36.00
2017-07-22T12:57:20.030Z,38.60
2017-07-22T12:59:49.690Z,34.90
2017-07-22T13:02:19.296Z,36.70
2017-07-22T13:04:50.618Z,34.00
2017-07-22T13:07:19.846Z,33.80
2017-07-22T13:09:49.123Z,35.00
2017-07-22T13:12:18.366Z,35.20
2017-07-22T13:14:47.915Z,34.20
2017-07-22T13:17:17.129Z,33.00
2017-07-22T13:19:46.395Z,32.10
2017-07-22T13:22:16.625Z,33.00
2017-07-22T13:24:46.784Z,31.30
2017-07-22T13:27:16.024Z,30.80
2017-07-22T13:29:45.283Z,31.20
2017-07-22T13:32:16.134Z,30.30
2017-07-22T13:34:46.139Z,29.60
2017-07-22T13:37:16.122Z,30.60
2017-07-22T13:39:45.366Z,30.60
2017-07-22T13:42:14.577Z,30.20
2017-07-22T13:44:44.244Z,30.60
2017-07-22T13:47:13.483Z,29.00
2017-07-22T13:49:42.747Z,29.90
2017-07-22T13:52:11.998Z,28.80
2017-07-22T13:54:41.826Z,29.70
2017-07-22T13:57:11.075Z,28.90
2017-07-22T13:59:40.314Z,28.10
2017-07-22T14:02:09.574Z,28.00
2017-07-22T14:04:39.555Z,27.50
2017-07-22T14:07:08.789Z,27.40
2017-07-22T14:09:38.792Z,27.40
2017-07-22T14:12:08.064Z,27.40
2017-07-22T14:14:37.301Z,27.00
2017-07-22T14:17:07.352Z,25.50
2017-07-22T14:19:36.626Z,25.50
2017-07-22T14:22:05.838Z,25.80
2017-07-22T14:24:36.109Z,26.50
2017-07-22T14:27:05.346Z,25.50
2017-07-22T14:29:34.854Z,25.50
2017-07-22T14:32:04.197Z,26.70
2017-07-22T14:34:33.554Z,26.90
2017-07-22T14:37:02.828Z,25.90
2017-07-22T14:39:32.074Z,24.50
2017-07-22T14:42:01.405Z,24.00
2017-07-22T14:44:30.763Z,25.00
2017-07-22T14:47:00.023Z,25.80
2017-07-22T17:36:58.314Z,52.40
2017-07-22T17:39:27.566Z,54.80
2017-07-22T17:41:57.840Z,56.10
2017-07-22T17:44:27.315Z,56.30
2017-07-22T17:46:56.501Z,56.30
2017-07-22T17:49:25.751Z,56.10
2017-07-22T17:51:56.346Z,56.00
2017-07-22T17:54:25.595Z,55.80
2017-07-22T17:56:54.839Z,56.10
2017-07-22T17:59:24.241Z,56.10
2017-07-22T18:01:54.930Z,56.00
2017-07-22T18:04:24.150Z,55.80
2017-07-22T18:06:53.358Z,55.60
2017-07-22T18:09:22.552Z,54.70
2017-07-22T18:11:52.702Z,54.10
2017-07-22T18:14:21.961Z,53.40
2017-07-22T18:16:51.197Z,52.20
2017-07-22T18:19:20.402Z,52.10
2017-07-22T18:21:50.531Z,52.00
2017-07-22T18:24:19.805Z,51.90
2017-07-22T18:26:49.004Z,52.10
2017-07-22T18:29:19.266Z,52.10
2017-07-22T18:31:50.024Z,52.30
2017-07-22T18:34:20.267Z,52.60
2017-07-22T18:36:49.518Z,52.90
2017-07-22T18:39:18.801Z,53.10
2017-07-22T18:41:49.101Z,53.20
2017-07-22T18:44:18.335Z,53.80
2017-07-22T18:46:47.562Z,54.50
2017-07-22T18:49:17.635Z,54.80
2017-07-22T18:51:47.010Z,55.60
2017-07-22T18:54:16.496Z,55.80
2017-07-22T18:56:46.091Z,56.30
2017-07-22T18:59:17.206Z,56.40
2017-07-22T19:01:46.760Z,56.60
2017-07-22T19:04:16.447Z,56.50
2017-07-22T19:06:45.996Z,57.10
2017-07-22T19:09:17.742Z,57.00
2017-07-22T19:11:47.272Z,56.20
2017-07-22T19:14:16.850Z,56.10
2017-07-22T19:16:46.361Z,56.30
2017-07-22T19:19:17.199Z,56.40
2017-07-22T19:21:46.691Z,56.60
2017-07-22T19:24:16.201Z,56.90
2017-07-22T19:26:46.231Z,56.90
2017-07-22T19:29:17.166Z,57.00
2017-07-22T19:31:46.646Z,57.00
2017-07-22T19:34:16.270Z,56.90
2017-07-22T19:36:45.818Z,56.80
2017-07-22T19:39:17.246Z,57.10
2017-07-22T19:41:46.782Z,57.50
2017-07-22T19:44:17.168Z,57.40
2017-07-22T19:46:46.682Z,57.40
2017-07-22T19:49:18.058Z,57.50
2017-07-22T19:51:48.320Z,57.40
2017-07-22T19:54:17.902Z,57.40
2017-07-22T19:56:47.402Z,57.60
2017-07-22T19:59:18.538Z,57.70
2017-07-22T20:01:47.922Z,57.80
2017-07-22T20:04:17.379Z,57.50
2017-07-22T20:06:47.078Z,57.30
2017-07-22T20:09:17.903Z,57.50
2017-07-22T20:11:47.394Z,57.40
2017-07-22T20:14:17.102Z,57.20
2017-07-22T20:16:46.580Z,56.90
2017-07-22T20:19:17.141Z,56.80
2017-07-22T20:21:46.682Z,56.80
2017-07-22T20:24:16.231Z,57.00
2017-07-22T20:26:45.676Z,57.10
2017-07-22T20:29:15.239Z,57.00
2017-07-22T20:31:44.742Z,57.10
2017-07-22T20:34:14.001Z,56.90
2017-07-22T20:36:43.562Z,56.90
2017-07-22T20:39:13.123Z,57.00
2017-07-22T20:41:42.368Z,57.40
2017-07-22T20:44:12.334Z,57.60
2017-07-22T20:46:41.527Z,57.60
2017-07-22T20:49:11.935Z,57.60
2017-07-22T20:51:41.170Z,57.60
2017-07-22T20:54:10.391Z,57.60
2017-07-22T20:56:39.865Z,57.30
2017-07-22T20:59:09.142Z,57.30
2017-07-22T21:01:38.358Z,56.90
2017-07-22T21:04:07.934Z,56.60
2017-07-22T21:06:37.459Z,57.10
2017-07-22T21:09:07.013Z,57.20
2017-07-22T21:11:37.497Z,56.90
2017-07-22T21:14:06.826Z,57.00
2017-07-22T21:16:36.365Z,57.10
2017-07-22T21:19:05.823Z,56.60
2017-07-22T21:21:35.845Z,56.70
2017-07-22T21:24:05.086Z,56.80
2017-07-22T21:26:34.299Z,56.60
2017-07-22T21:29:03.543Z,56.10
2017-07-22T21:31:32.768Z,56.00
2017-07-22T21:34:02.355Z,55.70
2017-07-22T21:36:31.582Z,55.70
2017-07-22T21:39:00.851Z,55.60
2017-07-22T21:41:30.058Z,56.00
2017-07-22T21:43:59.290Z,56.10
2017-07-22T21:46:30.158Z,56.40
2017-07-22T21:48:59.402Z,56.80
2017-07-22T21:51:28.677Z,56.80
2017-07-22T21:53:57.942Z,56.90
2017-07-22T21:56:27.147Z,58.10
2017-07-22T21:58:56.950Z,58.70
2017-07-22T22:01:27.209Z,59.40
2017-07-22T22:03:56.401Z,61.50
2017-07-22T22:06:25.610Z,61.60
2017-07-22T22:08:55.914Z,61.50
2017-07-22T22:11:25.166Z,61.50
2017-07-22T22:13:54.370Z,61.70
2017-07-22T22:16:23.570Z,61.30
2017-07-22T22:18:52.794Z,61.20
2017-07-22T22:21:22.022Z,61.00
2017-07-22T22:23:51.222Z,60.70
2017-07-22T22:26:20.490Z,61.30
2017-07-22T22:28:49.733Z,61.20
2017-07-22T22:31:18.978Z,61.20
2017-07-22T22:33:48.247Z,61.30
2017-07-22T22:36:17.510Z,61.40
2017-07-22T22:38:46.742Z,61.40
2017-07-22T22:41:16.965Z,61.50
2017-07-22T22:43:46.214Z,61.50
2017-07-22T22:46:15.433Z,61.40
2017-07-22T22:48:44.662Z,61.40
2017-07-22T22:51:13.865Z,61.30
2017-07-22T22:53:43.115Z,61.60
2017-07-22T22:56:13.401Z,61.60
2017-07-22T22:58:42.623Z,61.60
2017-07-22T23:01:11.819Z,61.70
2017-07-22T23:03:41.021Z,61.70
2017-07-22T23:06:10.227Z,61.50
2017-07-22T23:08:39.722Z,61.90
2017-07-22T23:11:08.930Z,61.90
2017-07-22T23:13:38.150Z,61.80
2017-07-22T23:16:07.326Z,61.80
2017-07-22T23:18:36.557Z,61.80
2017-07-22T23:21:05.778Z,61.90
2017-07-22T23:23:35.970Z,62.50
2017-07-22T23:26:05.154Z,61.80
2017-07-22T23:28:34.354Z,62.00
2017-07-22T23:31:03.549Z,62.30
2017-07-22T23:33:32.787Z,62.40
2017-07-22T23:36:02.746Z,62.30
2017-07-22T23:38:31.941Z,62.30
2017-07-22T23:41:01.118Z,62.30
2017-07-22T23:43:30.830Z,62.30
2017-07-22T23:46:00.114Z,62.20
2017-07-22T23:48:29.358Z,62.10
2017-07-22T23:50:58.577Z,62.00
2017-07-22T23:53:27.802Z,62.00
2017-07-22T23:55:57.043Z,62.00
2017-07-22T23:58:26.234Z,61.80
